createdAt,value
2023-01-18T00:01:02.431Z,11.90
2023-01-18T00:03:33.291Z,16.53
2023-01-18T00:06:02.607Z,12.70
2023-01-18T00:08:32.437Z,12.70
2023-01-18T00:11:05.494Z,15.60
2023-01-18T00:13:33.700Z,14.03
2023-01-18T00:16:06.330Z,12.90
2023-01-18T00:18:35.991Z,11.10
2023-01-18T00:21:04.983Z,12.33
2023-01-18T00:23:33.180Z,14.13
2023-01-18T00:26:01.926Z,12.27
2023-01-18T00:28:31.502Z,13.53
2023-01-18T00:30:59.556Z,14.10
2023-01-18T00:33:27.634Z,14.77
2023-01-18T00:35:59.370Z,13.20
2023-01-18T00:38:28.172Z,12.60
2023-01-18T00:40:56.518Z,15.93
2023-01-18T00:43:38.791Z,15.53
2023-01-18T00:46:08.681Z,12.10
2023-01-18T00:48:38.819Z,14.03
2023-01-18T00:51:07.849Z,16.50
2023-01-18T00:53:38.034Z,16.07
2023-01-18T00:56:07.822Z,14.57
2023-01-18T00:58:37.329Z,15.73
2023-01-18T01:01:09.360Z,16.10
2023-01-18T01:03:52.108Z,13.30
2023-01-18T01:06:46.393Z,14.10
2023-01-18T01:09:17.772Z,17.10
2023-01-18T01:12:06.280Z,16.23
2023-01-18T01:14:54.271Z,15.07
2023-01-18T01:17:41.196Z,15.37
2023-01-18T01:20:27.976Z,17.40
2023-01-18T01:23:13.903Z,16.80
2023-01-18T01:25:59.301Z,17.27
2023-01-18T01:28:27.577Z,17.30
2023-01-18T01:30:58.450Z,16.47
2023-01-18T01:33:28.008Z,17.07
2023-01-18T01:35:57.805Z,17.33
2023-01-18T01:38:25.875Z,15.90
2023-01-18T01:40:57.858Z,15.87
2023-01-18T01:43:44.507Z,16.60
2023-01-18T01:46:36.278Z,16.90
2023-01-18T01:49:09.568Z,13.47
2023-01-18T01:51:40.730Z,15.87
2023-01-18T01:54:14.392Z,16.00
2023-01-18T01:56:44.391Z,15.37
2023-01-18T01:59:12.561Z,16.80
2023-01-18T02:01:43.723Z,17.33
2023-01-18T02:04:13.631Z,16.47
2023-01-18T02:06:42.060Z,14.50
2023-01-18T02:09:13.327Z,18.00
2023-01-18T02:11:42.448Z,17.20
2023-01-18T02:14:13.815Z,17.60
2023-01-18T02:16:54.878Z,18.07
2023-01-18T02:19:50.211Z,15.03
2023-01-18T02:22:34.678Z,14.83
2023-01-18T02:25:24.187Z,15.83
2023-01-18T02:27:56.872Z,13.07
2023-01-18T02:30:32.702Z,16.67
2023-01-18T02:33:07.556Z,15.10
2023-01-18T02:35:45.181Z,14.47
2023-01-18T02:38:17.697Z,16.20
2023-01-18T02:41:11.848Z,13.50
2023-01-18T02:44:00.396Z,14.50
2023-01-18T02:46:38.970Z,13.23
2023-01-18T02:49:10.228Z,14.50
2023-01-18T02:51:38.794Z,14.10
2023-01-18T02:54:10.951Z,16.03
2023-01-18T02:56:42.406Z,18.60
2023-01-18T02:59:16.238Z,17.10
2023-01-18T03:01:48.872Z,17.40
2023-01-18T03:04:22.921Z,18.40
2023-01-18T03:06:58.640Z,16.33
2023-01-18T03:09:28.011Z,16.60
2023-01-18T03:12:02.060Z,16.00
2023-01-18T03:14:40.321Z,16.67
2023-01-18T03:17:16.044Z,16.93
2023-01-18T03:20:06.521Z,19.37
2023-01-18T03:22:58.132Z,18.03
2023-01-18T03:25:29.912Z,17.57
2023-01-18T03:28:17.891Z,21.50
2023-01-18T03:31:05.259Z,19.87
2023-01-18T03:33:45.819Z,14.47
2023-01-18T03:36:22.515Z,18.63
2023-01-18T03:38:55.403Z,19.77
2023-01-18T03:41:28.362Z,17.90
2023-01-18T03:43:59.019Z,17.07
2023-01-18T03:46:30.169Z,17.07
2023-01-18T03:49:00.561Z,17.10
2023-01-18T03:51:40.599Z,18.90
2023-01-18T03:54:15.271Z,15.50
2023-01-18T03:56:50.036Z,14.77
2023-01-18T03:59:18.450Z,14.90
2023-01-18T04:01:48.298Z,17.17
2023-01-18T04:04:17.766Z,17.83
2023-01-18T04:06:45.719Z,17.00
2023-01-18T04:09:13.777Z,18.13
2023-01-18T04:11:41.777Z,17.97
2023-01-18T04:14:10.112Z,19.00
2023-01-18T04:16:38.082Z,19.80
2023-01-18T04:19:07.416Z,17.10
2023-01-18T04:21:38.477Z,16.07
2023-01-18T04:24:07.230Z,21.50
2023-01-18T04:26:35.267Z,18.97
2023-01-18T04:29:03.441Z,17.00
2023-01-18T04:31:31.530Z,19.33
2023-01-18T04:33:59.517Z,21.03
2023-01-18T04:36:28.831Z,21.40
2023-01-18T04:38:58.165Z,18.57
2023-01-18T04:41:26.448Z,15.23
2023-01-18T04:43:54.441Z,19.40
2023-01-18T04:46:22.542Z,20.23
2023-01-18T04:48:52.175Z,18.60
2023-01-18T04:51:20.206Z,18.33
2023-01-18T04:53:48.742Z,17.47
2023-01-18T04:56:19.036Z,16.23
2023-01-18T04:58:47.149Z,18.63
2023-01-18T05:01:16.967Z,16.80
2023-01-18T05:03:44.999Z,14.33
2023-01-18T05:06:14.972Z,16.93
2023-01-18T05:08:43.578Z,16.33
2023-01-18T05:11:13.178Z,14.20
2023-01-18T05:13:42.973Z,15.30
2023-01-18T05:16:15.303Z,14.20
2023-01-18T05:18:43.948Z,16.87
2023-01-18T05:21:12.542Z,12.83
2023-01-18T05:23:41.070Z,13.90
2023-01-18T05:26:14.694Z,12.00
2023-01-18T05:28:44.704Z,11.97
2023-01-18T05:31:14.714Z,12.23
2023-01-18T05:33:43.172Z,12.90
2023-01-18T05:36:11.672Z,9.87
2023-01-18T05:38:39.689Z,8.40
2023-01-18T05:41:07.891Z,10.40
2023-01-18T05:43:35.940Z,9.47
2023-01-18T05:46:05.934Z,9.63
2023-01-18T05:48:34.087Z,7.73
2023-01-18T05:51:02.122Z,8.63
2023-01-18T05:53:30.111Z,8.17
2023-01-18T05:55:59.523Z,5.90
2023-01-18T05:58:28.271Z,8.77
2023-01-18T06:00:56.648Z,7.87
2023-01-18T06:03:26.608Z,9.03
2023-01-18T06:05:54.610Z,7.13
2023-01-18T06:08:22.884Z,7.77
2023-01-18T06:10:55.029Z,9.03
2023-01-18T06:13:23.660Z,7.17
2023-01-18T06:15:54.659Z,8.93
2023-01-18T06:18:22.998Z,7.70
2023-01-18T06:20:55.095Z,7.03
2023-01-18T06:23:23.088Z,7.77
2023-01-18T06:25:51.514Z,7.93
2023-01-18T06:28:20.779Z,8.40
2023-01-18T06:30:48.741Z,8.40
2023-01-18T06:33:16.768Z,6.80
2023-01-18T06:35:44.789Z,8.53
2023-01-18T06:38:14.339Z,7.90
2023-01-18T06:40:42.475Z,7.53
2023-01-18T06:43:14.061Z,7.87
2023-01-18T06:45:42.506Z,8.17
2023-01-18T06:48:11.799Z,8.30
2023-01-18T06:50:39.801Z,7.73
2023-01-18T06:53:07.796Z,9.40
2023-01-18T06:55:37.102Z,8.10
2023-01-18T06:58:05.062Z,12.93
2023-01-18T07:00:34.132Z,10.20
2023-01-18T07:03:02.203Z,10.00
2023-01-18T07:05:30.150Z,9.97
2023-01-18T07:07:58.177Z,10.43
2023-01-18T07:10:26.205Z,13.10
2023-01-18T07:13:00.442Z,14.00
2023-01-18T07:15:28.856Z,12.70
2023-01-18T07:17:57.845Z,11.57
2023-01-18T07:20:26.188Z,10.40
2023-01-18T07:22:54.546Z,10.93
2023-01-18T07:25:23.090Z,9.97
2023-01-18T07:27:51.413Z,11.90
2023-01-18T07:30:21.306Z,9.23
2023-01-18T07:32:50.854Z,9.90
2023-01-18T07:35:22.164Z,10.47
2023-01-18T07:37:52.316Z,10.90
2023-01-18T07:40:21.954Z,10.67
2023-01-18T07:42:50.379Z,13.40
2023-01-18T07:45:21.244Z,12.20
2023-01-18T07:47:50.045Z,10.47
2023-01-18T07:50:18.696Z,12.63
2023-01-18T07:52:47.120Z,12.37
2023-01-18T07:55:15.541Z,9.77
2023-01-18T07:57:43.980Z,12.30
2023-01-18T08:00:14.722Z,9.47
2023-01-18T08:02:45.387Z,12.50
2023-01-18T08:05:13.722Z,10.93
2023-01-18T08:07:42.149Z,9.53
2023-01-18T08:10:11.512Z,11.23
2023-01-18T08:12:39.951Z,14.27
2023-01-18T08:15:09.527Z,13.50
2023-01-18T08:17:38.518Z,11.63
2023-01-18T08:20:09.746Z,13.07
2023-01-18T08:22:38.168Z,11.37
2023-01-18T08:25:10.076Z,10.60
2023-01-18T08:27:38.793Z,11.03
2023-01-18T08:30:08.741Z,8.77
2023-01-18T08:32:37.120Z,10.40
2023-01-18T08:35:05.632Z,8.23
2023-01-18T08:37:37.021Z,10.60
2023-01-18T08:40:05.989Z,9.60
2023-01-18T08:42:49.771Z,8.93
2023-01-18T08:45:39.140Z,11.57
2023-01-18T08:48:10.315Z,9.17
2023-01-18T08:50:39.106Z,7.67
2023-01-18T08:53:14.254Z,6.60
2023-01-18T08:55:42.332Z,7.70
2023-01-18T08:58:12.064Z,10.73
2023-01-18T09:00:40.173Z,8.27
2023-01-18T09:03:11.373Z,7.30
2023-01-18T09:05:40.326Z,8.43
2023-01-18T09:08:08.335Z,7.17
2023-01-18T09:10:38.769Z,7.87
2023-01-18T09:13:07.110Z,8.10
2023-01-18T09:15:38.823Z,7.73
2023-01-18T09:18:15.462Z,8.47
2023-01-18T09:20:47.909Z,7.63
2023-01-18T09:23:22.454Z,7.60
2023-01-18T09:26:02.452Z,8.27
2023-01-18T09:28:37.206Z,8.10
2023-01-18T09:31:09.706Z,8.27
2023-01-18T09:33:38.914Z,7.83
2023-01-18T09:36:10.408Z,8.23
2023-01-18T09:38:39.682Z,7.70
2023-01-18T09:41:20.054Z,8.83
2023-01-18T09:43:51.258Z,8.90
2023-01-18T09:46:21.514Z,9.27
2023-01-18T09:48:55.298Z,8.47
2023-01-18T09:51:28.636Z,9.60
2023-01-18T09:54:09.175Z,9.43
2023-01-18T09:56:45.812Z,9.80
2023-01-18T09:59:22.223Z,8.80
2023-01-18T10:01:52.427Z,9.20
2023-01-18T10:04:26.149Z,8.27
2023-01-18T10:06:57.744Z,9.83
2023-01-18T10:09:30.790Z,8.73
2023-01-18T10:12:02.206Z,9.20
2023-01-18T10:14:45.260Z,7.37
2023-01-18T10:17:17.726Z,7.47
2023-01-18T10:19:46.421Z,7.40
2023-01-18T10:22:23.010Z,6.80
2023-01-18T10:25:01.355Z,7.80
2023-01-18T10:27:51.791Z,12.17
2023-01-18T10:30:35.208Z,8.27
2023-01-18T10:33:12.429Z,6.60
2023-01-18T10:35:45.278Z,8.77
2023-01-18T10:38:17.585Z,9.77
2023-01-18T10:40:49.697Z,7.43
2023-01-18T10:43:23.589Z,8.63
2023-01-18T10:45:53.201Z,8.00
2023-01-18T10:48:30.114Z,10.57
2023-01-18T10:51:00.113Z,7.10
2023-01-18T10:53:31.799Z,9.30
2023-01-18T10:56:04.030Z,6.60
2023-01-18T10:58:38.250Z,8.13
2023-01-18T11:01:15.917Z,8.80
2023-01-18T11:03:49.803Z,7.13
2023-01-18T11:06:20.576Z,8.03
2023-01-18T11:08:49.526Z,8.60
2023-01-18T11:11:20.273Z,9.07
2023-01-18T11:13:50.559Z,11.23
2023-01-18T11:16:23.052Z,7.00
2023-01-18T11:19:00.508Z,9.57
2023-01-18T11:21:40.899Z,7.20
2023-01-18T11:24:14.474Z,9.93
2023-01-18T11:26:53.350Z,10.10
2023-01-18T11:29:28.249Z,7.97
2023-01-18T11:31:57.074Z,6.47
2023-01-18T11:34:29.684Z,10.43
2023-01-18T11:37:09.884Z,6.70
2023-01-18T11:39:38.743Z,7.20
2023-01-18T11:42:25.840Z,7.77
2023-01-18T11:45:05.481Z,8.60
2023-01-18T11:47:46.538Z,7.10
2023-01-18T11:50:28.201Z,6.47
2023-01-18T11:53:01.239Z,6.10
2023-01-18T11:55:34.709Z,6.13
2023-01-18T11:58:05.260Z,4.57
2023-01-18T12:00:47.120Z,7.83
2023-01-18T12:03:28.489Z,7.43
2023-01-18T12:06:00.900Z,5.33
2023-01-18T12:08:49.372Z,8.43
2023-01-18T12:11:36.837Z,5.60
2023-01-18T12:14:13.839Z,6.33
2023-01-18T12:16:58.745Z,5.20
2023-01-18T12:19:48.684Z,6.00
2023-01-18T12:22:50.400Z,6.70
2023-01-18T12:25:32.400Z,6.47
2023-01-18T12:28:10.275Z,6.57
2023-01-18T12:30:49.703Z,9.90
2023-01-18T12:33:42.832Z,6.40
2023-01-18T12:36:29.955Z,6.67
2023-01-18T12:38:58.497Z,8.50
2023-01-18T12:41:53.130Z,5.87
2023-01-18T12:44:39.868Z,7.33
2023-01-18T12:47:34.854Z,6.93
2023-01-18T12:50:13.870Z,7.03
2023-01-18T12:52:47.147Z,6.90
2023-01-18T12:55:21.283Z,6.17
2023-01-18T12:57:51.940Z,5.77
2023-01-18T13:00:24.490Z,7.10
2023-01-18T13:02:57.530Z,7.43
2023-01-18T13:05:35.229Z,5.87
2023-01-18T13:08:09.185Z,6.50
2023-01-18T13:10:38.477Z,5.80
2023-01-18T13:13:07.394Z,4.80
2023-01-18T13:15:41.220Z,7.63
2023-01-18T13:18:16.922Z,5.80
2023-01-18T13:21:06.950Z,6.77
2023-01-18T13:23:47.946Z,6.60
2023-01-18T13:26:24.325Z,6.70
2023-01-18T13:29:08.469Z,4.90
2023-01-18T13:31:36.831Z,5.67
2023-01-18T13:34:05.585Z,7.50
2023-01-18T13:36:46.549Z,8.03
2023-01-18T13:39:17.615Z,8.53
2023-01-18T13:42:08.928Z,5.23
2023-01-18T13:44:43.576Z,8.17
2023-01-18T13:47:45.670Z,4.63
2023-01-18T13:50:48.285Z,5.53
2023-01-18T13:53:31.363Z,8.93
2023-01-18T13:56:28.623Z,8.03
2023-01-18T13:59:02.355Z,6.77
2023-01-18T14:01:35.355Z,7.07
2023-01-18T14:04:16.678Z,6.17
2023-01-18T14:06:46.479Z,6.90
2023-01-18T14:09:18.387Z,5.60
2023-01-18T14:12:01.704Z,5.37
2023-01-18T14:14:32.676Z,5.40
2023-01-18T14:17:06.177Z,10.50
2023-01-18T14:20:00.132Z,7.17
2023-01-18T14:22:40.976Z,5.90
2023-01-18T14:25:26.067Z,7.40
2023-01-18T14:28:04.121Z,4.60
2023-01-18T14:30:35.601Z,7.20
2023-01-18T14:33:08.103Z,7.30
2023-01-18T14:35:36.367Z,6.43
2023-01-18T14:38:17.873Z,6.30
2023-01-18T14:40:50.517Z,5.30
2023-01-18T14:43:25.990Z,6.30
2023-01-18T14:45:58.704Z,6.13
2023-01-18T14:48:27.665Z,6.73
2023-01-18T14:50:56.822Z,8.43
2023-01-18T14:53:27.203Z,6.60
2023-01-18T14:56:10.955Z,4.90
2023-01-18T14:58:41.633Z,6.17
2023-01-18T15:01:24.126Z,7.03
2023-01-18T15:03:56.069Z,7.97
2023-01-18T15:06:33.671Z,5.57
2023-01-18T15:09:03.632Z,6.27
2023-01-18T15:11:35.599Z,7.13
2023-01-18T15:14:07.920Z,5.43
2023-01-18T15:16:36.360Z,6.27
2023-01-18T15:19:04.576Z,6.30
2023-01-18T15:21:36.178Z,6.17
2023-01-18T15:24:08.691Z,6.03
2023-01-18T15:26:44.101Z,6.27
2023-01-18T15:29:21.473Z,9.53
2023-01-18T15:31:52.795Z,7.50
2023-01-18T15:34:28.301Z,5.37
2023-01-18T15:36:58.376Z,6.40
2023-01-18T15:39:27.203Z,4.53
2023-01-18T15:42:05.209Z,5.47
2023-01-18T15:44:43.517Z,5.80
2023-01-18T15:47:16.759Z,6.00
2023-01-18T15:49:48.471Z,4.87
2023-01-18T15:52:16.927Z,6.43
2023-01-18T15:54:45.031Z,6.77
2023-01-18T15:57:19.795Z,7.87
2023-01-18T15:59:48.928Z,5.20
2023-01-18T16:02:20.064Z,9.90
2023-01-18T16:04:48.609Z,9.83
2023-01-18T16:07:35.571Z,9.00
2023-01-18T16:10:20.769Z,8.13
2023-01-18T16:12:50.167Z,6.03
2023-01-18T16:15:26.449Z,5.93
2023-01-18T16:18:00.289Z,6.77
2023-01-18T16:20:29.453Z,6.50
2023-01-18T16:23:04.134Z,5.40
2023-01-18T16:25:32.449Z,6.50
2023-01-18T16:28:02.972Z,6.53
2023-01-18T16:30:34.979Z,4.97
2023-01-18T16:33:10.508Z,5.10
2023-01-18T16:35:39.931Z,8.17
2023-01-18T16:38:13.002Z,5.33
2023-01-18T16:40:44.040Z,5.80
2023-01-18T16:43:23.618Z,5.10
2023-01-18T16:45:53.555Z,9.00
2023-01-18T16:48:23.455Z,5.20
2023-01-18T16:50:51.989Z,4.63
2023-01-18T16:53:20.085Z,7.70
2023-01-18T16:55:48.827Z,7.97
2023-01-18T16:58:18.350Z,7.97
2023-01-18T17:00:52.807Z,7.73
2023-01-18T17:03:20.831Z,5.27
2023-01-18T17:05:48.896Z,6.23
2023-01-18T17:08:18.001Z,9.03
2023-01-18T17:10:47.494Z,6.03
2023-01-18T17:13:15.554Z,6.10
2023-01-18T17:15:45.350Z,6.70
2023-01-18T17:18:17.386Z,7.63
2023-01-18T17:20:45.772Z,5.23
2023-01-18T17:23:14.343Z,7.83
2023-01-18T17:25:42.514Z,5.87
2023-01-18T17:28:12.574Z,4.70
2023-01-18T17:30:42.229Z,7.27
2023-01-18T17:33:18.593Z,6.30
2023-01-18T17:35:46.669Z,6.60
2023-01-18T17:38:23.166Z,5.23
2023-01-18T17:40:52.040Z,6.50
2023-01-18T17:43:32.193Z,7.70
2023-01-18T17:46:04.273Z,4.33
2023-01-18T17:48:33.939Z,7.37
2023-01-18T17:51:01.953Z,8.07
2023-01-18T17:53:30.096Z,7.27
2023-01-18T17:55:58.211Z,7.63
2023-01-18T17:58:26.357Z,7.40
2023-01-18T18:00:55.307Z,6.80
2023-01-18T18:03:23.455Z,9.23
2023-01-18T18:05:57.935Z,5.13
2023-01-18T18:08:26.145Z,7.20
2023-01-18T18:10:55.205Z,6.47
2023-01-18T18:13:23.977Z,7.30
2023-01-18T18:15:52.622Z,14.17
2023-01-18T18:18:23.316Z,6.77
2023-01-18T18:20:58.525Z,6.03
2023-01-18T18:23:26.992Z,5.70
2023-01-18T18:25:55.527Z,8.40
2023-01-18T18:28:24.437Z,9.33
2023-01-18T18:30:53.048Z,6.10
2023-01-18T18:33:22.924Z,6.70
2023-01-18T18:35:53.375Z,7.13
2023-01-18T18:38:23.544Z,6.27
2023-01-18T18:40:52.054Z,5.53
2023-01-18T18:43:20.519Z,6.83
2023-01-18T18:45:48.686Z,6.53
2023-01-18T18:48:16.754Z,6.23
2023-01-18T18:50:46.670Z,6.47
2023-01-18T18:53:16.907Z,11.90
2023-01-18T18:55:46.440Z,10.43
2023-01-18T18:58:14.542Z,10.20
2023-01-18T19:00:42.657Z,10.30
2023-01-18T19:03:11.217Z,10.57
2023-01-18T19:05:39.463Z,10.03
2023-01-18T19:08:07.448Z,10.30
2023-01-18T19:10:36.822Z,10.33
2023-01-18T19:13:04.892Z,7.33
2023-01-18T19:15:33.054Z,9.53
2023-01-18T19:18:01.102Z,7.00
2023-01-18T19:20:29.140Z,9.00
2023-01-18T19:22:57.530Z,9.10
2023-01-18T19:25:26.026Z,9.37
2023-01-18T19:27:55.365Z,11.17
2023-01-18T19:30:23.402Z,8.07
2023-01-18T19:32:52.688Z,9.43
2023-01-18T19:35:21.812Z,9.57
2023-01-18T19:37:50.224Z,11.23
2023-01-18T19:40:18.480Z,10.70
2023-01-18T19:42:54.194Z,10.57
2023-01-18T19:45:28.294Z,11.93
2023-01-18T19:47:58.082Z,10.90
2023-01-18T19:50:26.754Z,11.80
2023-01-18T19:52:55.190Z,7.87
2023-01-18T19:55:25.030Z,8.70
2023-01-18T19:57:56.059Z,11.83
2023-01-18T20:00:25.844Z,6.50
2023-01-18T20:02:54.273Z,9.27
2023-01-18T20:05:22.383Z,7.87
2023-01-18T20:07:50.408Z,9.70
2023-01-18T20:10:20.299Z,13.73
2023-01-18T20:12:49.285Z,10.33
2023-01-18T20:15:19.084Z,10.83
2023-01-18T20:17:48.542Z,8.47
2023-01-18T20:20:24.210Z,8.50
2023-01-18T20:22:59.605Z,11.57
2023-01-18T20:25:27.919Z,11.73
2023-01-18T20:27:56.012Z,9.63
2023-01-18T20:30:24.212Z,7.43
2023-01-18T20:32:53.739Z,15.13
2023-01-18T20:35:22.789Z,10.30
2023-01-18T20:37:52.141Z,9.80
2023-01-18T20:40:20.367Z,9.87
2023-01-18T20:42:48.649Z,8.37
2023-01-18T20:45:16.736Z,15.53
2023-01-18T20:47:44.777Z,18.63
2023-01-18T20:50:14.390Z,11.20
2023-01-18T20:52:42.855Z,10.90
2023-01-18T20:55:13.057Z,12.90
2023-01-18T20:57:41.182Z,18.80
2023-01-18T21:00:12.527Z,9.60
2023-01-18T21:02:41.469Z,12.00
2023-01-18T21:05:10.015Z,13.00
2023-01-18T21:07:41.560Z,12.73
2023-01-18T21:10:11.277Z,11.40
2023-01-18T21:12:41.256Z,10.93
2023-01-18T21:15:10.439Z,9.07
2023-01-18T21:17:39.757Z,9.73
2023-01-18T21:20:09.256Z,9.57
2023-01-18T21:22:37.230Z,12.10
2023-01-18T21:25:08.612Z,11.87
2023-01-18T21:27:36.712Z,10.53
2023-01-18T21:30:05.436Z,13.80
2023-01-18T21:32:33.482Z,11.50
2023-01-18T21:35:01.491Z,12.00
2023-01-18T21:37:29.608Z,12.03
2023-01-18T21:39:58.186Z,13.87
2023-01-18T21:42:45.483Z,11.57
2023-01-18T21:45:31.555Z,10.40
2023-01-18T21:48:01.038Z,12.53
2023-01-18T21:50:47.051Z,11.60
2023-01-18T21:53:32.746Z,9.80
2023-01-18T21:56:00.871Z,14.60
2023-01-18T21:58:47.686Z,12.93
2023-01-18T22:01:18.212Z,10.33
2023-01-18T22:04:03.825Z,13.73
2023-01-18T22:06:31.847Z,10.00
2023-01-18T22:09:00.026Z,15.90
2023-01-18T22:11:28.272Z,9.80
2023-01-18T22:13:57.691Z,11.87
2023-01-18T22:16:30.461Z,10.37
2023-01-18T22:18:59.027Z,12.47
2023-01-18T22:21:27.679Z,9.77
2023-01-18T22:23:56.265Z,12.17
2023-01-18T22:26:26.408Z,10.00
2023-01-18T22:28:54.460Z,10.90
2023-01-18T22:31:24.256Z,11.43
2023-01-18T22:33:52.685Z,13.20
2023-01-18T22:36:20.697Z,10.23
2023-01-18T22:38:48.709Z,11.60
2023-01-18T22:41:18.816Z,11.93
2023-01-18T22:43:47.514Z,15.20
2023-01-18T22:46:16.991Z,15.17
2023-01-18T22:48:47.757Z,11.80
2023-01-18T22:51:17.730Z,11.00
2023-01-18T22:53:46.078Z,11.73
2023-01-18T22:56:15.938Z,11.10
2023-01-18T22:58:44.079Z,10.87
2023-01-18T23:01:16.560Z,10.50
2023-01-18T23:03:46.694Z,10.20
2023-01-18T23:06:15.335Z,11.30
2023-01-18T23:08:43.642Z,14.10
2023-01-18T23:11:13.264Z,13.67
2023-01-18T23:13:43.028Z,11.57
2023-01-18T23:16:32.467Z,10.67
2023-01-18T23:19:01.779Z,10.57
2023-01-18T23:21:29.790Z,11.53
2023-01-18T23:23:57.806Z,11.90
2023-01-18T23:26:25.798Z,14.30
2023-01-18T23:28:53.754Z,13.60
2023-01-18T23:31:21.818Z,11.53
2023-01-18T23:33:49.859Z,11.60
2023-01-18T23:36:19.262Z,17.83
2023-01-18T23:39:05.085Z,15.13
2023-01-18T23:41:50.480Z,14.13
2023-01-18T23:44:35.908Z,13.30
2023-01-18T23:47:21.849Z,14.07
2023-01-18T23:50:07.192Z,12.33
2023-01-18T23:52:54.112Z,14.70
2023-01-18T23:55:22.851Z,14.60
2023-01-18T23:57:50.899Z,13.23
